• Join FlightAware (Why Join?)
  • Login
  • US Flag 
03:47PM EDT


 

Airport Tracker/Info


-or-


 

Live Flight TrackerFlight Track Log ✈ JIA2278 ✈ 02-Apr-2012 ✈ KCHS - KCLT

Flight Track Log - Related Links

Times and Time Zones

All times are in EDT time to prevent confusion due to time zone crossing. See the JIA2278 flight status page for this flight to view local times or setup timezone preferences in your user account.

Time Position Orientation Groundspeed Altitude Reporting Facility
EDT Latitude Longitude Course Direction KTS MPH feet Rate Location/Type
05:30AM 32.9198 -80.0484 North  Level FlightAware Approximate
05:31AM 32.9958 -79.9984 271° West  Level FlightAware Approximate
05:32AM 32.9964 -80.0369 19° North 234 269 4,200  Level Jacksonville Center
05:33AM 33.0667 -80.0075 18° North 247 284 6,700 2,760 Climbing Jacksonville Center
05:34AM 33.1494 -79.9750 20° North 270 311 9,800 2,820 Climbing Jacksonville Center
05:35AM 33.2300 -79.9400 22° Northeast 290 334 12,400 2,520 Climbing Jacksonville Center
05:36AM 33.3086 -79.9028 31° Northeast 295 339 14,900 1,260 Climbing Jacksonville Center
05:37AM 33.3864 -79.8478 31° Northeast 306 352 15,000  Climbing Jacksonville Center
05:38AM 33.4625 -79.7928 32° Northeast 311 358 15,000  Level Jacksonville Center
05:39AM 33.5381 -79.7356 26° Northeast 316 364 15,000  Level Jacksonville Center
05:40AM 33.6225 -79.6850 339° North 321 369 15,000  Level Jacksonville Center
05:41AM 33.7089 -79.7244 334° Northwest 295 339 15,000 -60 Level Jacksonville Center
05:42AM 33.7936 -79.7739 332° Northwest 307 353 14,900 600 Descending Jacksonville Center
05:43AM 33.8764 -79.8258 332° Northwest 315 362 16,300 960 Climbing Jacksonville Center
05:44AM 33.9611 -79.8806 334° Northwest 331 381 16,900 300 Climbing Jacksonville Center
05:45AM 34.0500 -79.9325 332° Northwest 337 388 16,900  Level Jacksonville Center
05:46AM 34.1325 -79.9850 334° Northwest 337 388 16,900  Level Jacksonville Center
05:47AM 34.2194 -80.0372 333° Northwest 337 388 16,900  Level Jacksonville Center
05:48AM 34.3061 -80.0897 335° Northwest 337 388 16,900 -420 Level Jacksonville Center
05:49AM 34.3906 -80.1372 328° Northwest 332 382 16,100 -1,020 Descending Jacksonville Center
05:50AM 34.4469 -80.1800 332° Northwest 329 379 15,100 -1,440 Descending FAA TRACON SMA TRACON (SMA)
05:51AM 34.4961 -80.2111 333° Northwest 294 338 14,000 -1,440 Descending FAA TRACON SMA TRACON (SMA)
05:51AM 34.5381 -80.2369 333° Northwest 278 320 13,200 -1,260 Descending FAA TRACON SMA TRACON (SMA)
05:52AM 34.5844 -80.2658 333° Northwest 271 312 12,400 -1,380 Descending FAA TRACON SMA TRACON (SMA)
05:53AM 34.6322 -80.2953 333° Northwest 275 316 11,400 -1,020 Descending FAA TRACON SMA TRACON (SMA)
05:53AM 34.6750 -80.3217 324° Northwest 279 321 11,100 -240 Descending FAA TRACON SMA TRACON (SMA)
05:54AM 34.7156 -80.3581 315° West 263 303 11,100  Level FAA TRACON SMA TRACON (SMA)
05:55AM 34.7508 -80.4014 315° West 263 303 11,100  Level FAA TRACON SMA TRACON (SMA)
05:55AM 34.7828 -80.4400 314° West 262 302 11,100  Level FAA TRACON SMA TRACON (SMA)
05:56AM 34.8186 -80.4850 314° West 265 305 11,100  Level FAA TRACON SMA TRACON (SMA)
05:57AM 34.8539 -80.5294 315° West 264 304 11,100  Level FAA TRACON SMA TRACON (SMA)
05:57AM 34.8900 -80.5736 314° West 264 304 11,100  Level FAA TRACON SMA TRACON (SMA)
05:58AM 34.9217 -80.6131 311° West 265 305 11,100  Level FAA TRACON SMA TRACON (SMA)
05:59AM 34.9519 -80.6558 317° Northwest 263 303 11,100  Level Atlanta Center
06:00AM 34.9997 -80.7111 314° West 261 300 11,100  Level FAA TRACON SMA TRACON (SMA)
06:00AM 35.0239 -80.7414 314° West 262 302 11,100  Level FAA TRACON SMA TRACON (SMA)
06:01AM 35.0583 -80.7847 332° Northwest 261 300 11,100 -180 Level FAA TRACON SMA TRACON (SMA)
06:01AM 35.0978 -80.8100 355° North 234 269 10,900 -1,020 Descending FAA TRACON SMA TRACON (SMA)
06:02AM 35.1397 -80.8144 356° North 231 266 9,800 -1,500 Descending FAA TRACON SMA TRACON (SMA)
06:03AM 35.1808 -80.8181 34° Northeast 228 262 9,000 -1,320 Descending FAA TRACON SMA TRACON (SMA)
06:03AM 35.2153 -80.7892 48° Northeast 225 259 8,100 -1,680 Descending FAA TRACON SMA TRACON (SMA)
06:04AM 35.2408 -80.7544 48° Northeast 222 255 6,800 -1,920 Descending FAA TRACON SMA TRACON (SMA)
06:05AM 35.2689 -80.7161 36° Northeast 219 252 5,600 -1,380 Descending FAA TRACON SMA TRACON (SMA)
06:05AM 35.2992 -80.6892 318° Northwest 205 236 5,000 -1,020 Descending FAA TRACON SMA TRACON (SMA)
06:06AM 35.3200 -80.7122 262° West 174 200 4,300 -780 Descending FAA TRACON SMA TRACON (SMA)
06:07AM 35.3158 -80.7503 242° Southwest 184 212 4,000 -480 Descending FAA TRACON SMA TRACON (SMA)
06:07AM 35.3008 -80.7853 242° Southwest 167 192 3,700 -480 Descending FAA TRACON SMA TRACON (SMA)